x

8413320 - Bar Harbor, Me (atgm1) Weather Station

6:54 - Tue 21st Oct 2014 All times are EDT. -4 hours from GMT.

  • Wind
    8mph, 9mph gusts
  • Sea Temp 54°f
  • Luft Temp 49°f
  • Sea Pressure 1017.7mb
  • 8413320 - Bar Harbor, Me
  • 8413320 - Bar Harbor, Me

More Historic Weather Station data

Upgrade to MSW Pro to gain access to the past 30 days of data for over 8000 Wavebouys and Weather Stations around the globe.

Join Pro

Comparision Forecast

View Surf forecast
   
Di 10/21 6:54 8 9 mph 1017.7mb 54f 49f
6:48 7 8 mph 1017.7mb 54f 49f
6:42 5 6 mph 1017.7mb 55f 49f
6:36 5 6 mph 1017.8mb 54f 49f
6:30 5
mph
1017.8mb 54f 49f
6:24 3 6 mph 1017.6mb 54f 49f
6:18 3 6 mph 1017.5mb 54f 49f
6:12  -  mph 1017.6mb 54f 49f
6:06  -  mph 1017.6mb 54f 48f
6:00  -  mph 1017.5mb 55f 48f
5:54  -  mph 1017.5mb - 48f
5:48  -  mph 1017.5mb 54f 48f
5:42  -  mph 1017.4mb 54f 48f
5:36  -  mph 1017.5mb 54f 48f
5:30  -  mph 1017.4mb 55f 48f
5:24  -  mph 1017.4mb 55f 48f
5:18  -  mph 1017.3mb 55f 48f
5:12  -  3 mph 1017.3mb 54f 48f
5:06 2 3 mph 1017.3mb 54f 48f
5:00  -  mph 1017.1mb 54f 48f
4:54  -  mph 1016.9mb 54f 48f
4:48  -  mph 1016.9mb 54f 48f
4:42  -  mph 1016.9mb 54f 48f
4:36  -  mph 1016.9mb 54f 48f
4:30  -  mph 1016.8mb 54f 48f
4:24  -  mph 1016.8mb 54f 48f
4:18  -  mph 1016.8mb 54f 48f
4:12  -  mph 1016.8mb 54f 49f
4:06  -  mph 1016.7mb 54f 49f
4:00  -  mph 1016.7mb 54f 49f
3:54  -  mph 1016.7mb 54f 49f
3:48  -  mph 1016.7mb 54f 49f
3:42  -  mph 1016.7mb 54f 49f
3:36  -  mph 1016.6mb 54f 49f
3:30  -  mph 1016.6mb 54f 49f
3:24  -  mph 1016.6mb 54f 49f
3:18  -  2 mph 1016.6mb 54f 49f
3:12 2 5 mph 1016.6mb 54f 49f
3:06 3
mph
1016.6mb 54f 49f
3:00  -  3 mph 1016.5mb 54f 49f
2:54 3 5 mph 1016.6mb 54f 49f
2:48 2 6 mph 1016.6mb 54f 49f
2:42 5 7 mph 1016.6mb 54f 49f
2:36 6 7 mph 1016.5mb 54f 50f
2:30 2 7 mph 1016.5mb 54f 49f
2:24 3 6 mph 1016.5mb 54f 49f
2:18 5 7 mph 1016.5mb 54f 49f
2:12 6
mph
1016.4mb 54f 49f
2:06 5 6 mph 1016.4mb 54f 50f
2:00 5 6 mph 1016.4mb 54f 50f
1:54 5 7 mph 1016.4mb 54f 50f
1:48 6 8 mph 1016.3mb 54f 49f
1:42 6 8 mph 1016.3mb 54f 49f
1:36 5 7 mph 1016.2mb 54f 49f
1:30 5 7 mph 1016.2mb 54f 49f
1:24 6 7 mph 1016.2mb 54f 49f
1:18 6 7 mph 1016.1mb 54f 49f
1:12 5 7 mph 1016mb 54f 49f
1:06 5 7 mph 1015.9mb 54f 49f
1:00 5 7 mph 1015.9mb 54f 49f
12:54 5 6 mph 1015.9mb 54f 49f
12:48 5 6 mph 1015.8mb 54f 49f
12:42 6 7 mph 1015.8mb 54f 49f
12:36 5 7 mph 1015.8mb 54f 50f
12:30 5 6 mph 1015.8mb 54f 50f
12:24 5 6 mph 1015.8mb 54f 50f
12:18 6 8 mph 1015.8mb 54f 50f
12:12 5 7 mph 1015.8mb 54f 50f
12:06 5 6 mph 1015.7mb 54f 50f
12:00 5 6 mph 1015.7mb 54f 50f
Mo 10/20 11:54 5 7 mph 1015.7mb 54f 49f
11:48 6 7 mph 1015.7mb 54f 49f
11:42 7 8 mph 1015.6mb 54f 49f
11:36 6 7 mph 1015.4mb 54f 50f
11:30 7 8 mph 1015.4mb 55f 50f
11:24 6 8 mph 1015.3mb 55f 50f
11:18 6 9 mph 1015.3mb 55f 49f
11:12 6 8 mph 1015.2mb 55f 49f
11:06 7 9 mph 1015.2mb 55f 49f
11:00 6 9 mph 1015.3mb - 48f
9:24  -  mph - 54f -
9:18  -  mph - 54f -
9:12 6 8 mph - - -
9:06 6 8 mph - - -
9:00 7 10 mph - - -
8:54 7 10 mph - - -
8:48  -  mph - 54f 47f
8:42  -  mph - 54f 47f
8:36  -  mph - 54f 47f
8:30 2 6 mph 1014.6mb 55f 47f
8:24 2 5 mph 1014.6mb 55f 47f
8:18 3 7 mph 1014.7mb 55f 47f
8:12 5 9 mph 1014.6mb 55f 47f
8:06 5 7 mph 1014.6mb 55f 48f
8:00 6 10 mph 1014.6mb 55f 48f
7:54 5 8 mph 1014.6mb 55f 47f
7:48 5 7 mph 1014.5mb 55f 47f
7:42 3 7 mph 1014.5mb 55f 47f
7:36 3 7 mph 1014.4mb 54f 47f
7:30 3 6 mph 1014.4mb 55f 47f
7:24 3 6 mph 1014.3mb 55f 47f
7:18 3 6 mph 1014.2mb 55f 47f
7:12 3 6 mph 1014.3mb 55f 47f
7:06 3 6 mph 1014.3mb 55f 47f
7:00 3 6 mph 1014.1mb 55f 47f
6:54 5 6 mph 1014mb 55f 47f
6:48 3 8 mph 1014mb 55f 47f
6:42 5 7 mph 1013.9mb 55f 47f
6:36  -  5 mph 1013.8mb 55f 47f
6:30 3 6 mph 1013.8mb 55f 47f
6:24  -  5 mph 1013.7mb 55f 47f
6:18 2 6 mph 1013.8mb 55f 47f
6:12 3 7 mph 1013.8mb 55f 47f
6:06 3 6 mph 1013.8mb 55f 47f
6:00 2 6 mph 1013.8mb 55f 47f
5:54 3 6 mph 1013.6mb 55f 47f
5:48 6 8 mph 1013.5mb 54f 47f
5:42 6 8 mph 1013.5mb 54f 47f
5:36 3 7 mph 1013.4mb 54f 48f
5:30 2 6 mph 1013.3mb 54f 48f
5:24 3 6 mph 1013.3mb 54f 48f
5:18 5 8 mph 1013.2mb 54f 48f
5:12 7 8 mph 1013.1mb 54f 49f
5:06 5 6 mph 1013mb 54f 49f
5:00 3 10 mph 1012.9mb 54f 49f
4:54 6 11 mph 1012.9mb 54f 49f
4:48 9 13 mph 1012.8mb 54f 49f
4:42 8 13 mph 1012.8mb 54f 49f
4:36 6 11 mph 1012.8mb 54f 49f
4:30 8 15 mph 1012.7mb 54f 49f
4:24 7 14 mph 1012.8mb 55f 50f
4:18 9 11 mph 1012.7mb 54f 50f
4:06 7 14 mph 1012.7mb 54f 50f
4:00 8 14 mph 1012.6mb 54f 50f
3:54 9 13 mph 1012.6mb 54f 50f
3:48 7 14 mph 1012.6mb 54f 50f
3:42 11 15 mph 1012.6mb 55f 49f
3:36 9 16 mph 1012.6mb 55f 49f
3:30 9 11 mph 1012.6mb 55f 50f
3:24 8 15 mph 1012.6mb 55f 50f
3:18 11 15 mph 1012.5mb 55f 49f
3:12 7 11 mph 1012.6mb 55f 49f
3:06 7 20 mph 1012.6mb 55f 49f
3:00 9 14 mph 1012.5mb 55f 49f
2:54 9 14 mph 1012.6mb 55f 49f
2:48 9 13 mph 1012.6mb 55f 49f
2:42 6 14 mph 1012.6mb 55f 49f
2:36 7 13 mph 1012.7mb 55f 49f
2:30 9 16 mph 1012.6mb 55f 48f
2:24 10 16 mph 1012.6mb 55f 48f
2:18 10 17 mph 1012.5mb 55f 48f
2:12 7 11 mph 1012.5mb 55f 47f
2:06 9 15 mph 1012.5mb 55f 47f
2:00 10 16 mph 1012.6mb 55f 47f
1:54 10 16 mph 1012.7mb 55f 47f
1:48 11 16 mph 1012.7mb 55f 47f
1:42 7 17 mph 1012.8mb 55f 47f
1:36 10 17 mph 1012.7mb 54f 46f
1:30 6 14 mph 1012.8mb 54f 46f
1:24 5 18 mph 1012.8mb 54f 47f
1:18 13 17 mph 1012.8mb 54f 46f
1:12 11 17 mph 1012.8mb 54f 46f
1:06 8 15 mph 1012.8mb 54f 47f
1:00 10 14 mph 1012.9mb 54f 46f
12:54 10 15 mph 1012.9mb 54f 46f
12:48 8 14 mph 1012.9mb 54f 46f
12:42 11 15 mph 1013mb 54f 46f
12:36 13 20 mph 1013.1mb 54f 46f
12:30 14 21 mph 1013.1mb 54f 46f
12:24 13 17 mph 1013.2mb 54f 45f
12:18 13 22 mph 1013.3mb 54f 45f
12:12 11 18 mph 1013.4mb 54f 45f
12:06 15 20 mph 1013.3mb 54f 45f
12:00 10 16 mph 1013.4mb 54f 45f
11:54 13 16 mph 1013.4mb 54f 45f
11:48 6 11 mph 1013.5mb 54f 46f
11:42 10 14 mph 1013.5mb 54f 45f
11:36 10 21 mph 1013.5mb 54f 45f
11:30 17 21 mph 1013.5mb 54f 44f
11:24 17 21 mph 1013.5mb 54f 44f
11:18 17 21 mph 1013.5mb 54f 44f
11:12 11 22 mph 1013.4mb 54f 44f
11:06 14 21 mph 1013.5mb 54f 44f
11:00 16 24 mph 1013.6mb 54f 44f
10:54 20 22 mph 1013.6mb 54f 44f
10:48 20 24 mph 1013.6mb 54f 43f
10:42 16 21 mph 1013.5mb 54f 44f
10:36 13 20 mph 1013.5mb 54f 44f
10:30 17 22 mph 1013.6mb 54f 43f
10:24 16 25 mph 1013.5mb 54f 43f
10:18 15 24 mph 1013.5mb 54f 43f
10:12 18 23 mph 1013.6mb 53f 43f
10:06 18 23 mph 1013.6mb 53f 43f
10:00 15 23 mph 1013.6mb 53f 43f
9:54 18 23 mph 1013.6mb 53f 43f
9:48 18 26 mph 1013.6mb 53f 43f
9:42 21 25 mph 1013.5mb 53f 43f
9:36 21 24 mph 1013.5mb 53f 43f
9:30 15 23 mph 1013.5mb 53f 43f
9:24 18 25 mph 1013.4mb 53f 43f
9:18 17 22 mph 1013.3mb 53f 42f
9:12 18 24 mph 1013.2mb 53f 42f
9:06 16 23 mph 1013.3mb 53f 42f
9:00 16 23 mph 1013.4mb 53f 42f
8:54 17 22 mph 1013.3mb 53f 42f
8:48 13 23 mph 1013.2mb 53f 42f
8:42 14 18 mph 1013.2mb 53f 42f
8:36 13 16 mph 1013.1mb 53f 42f
8:30 14 21 mph 1013.1mb 53f 42f
8:24 15 20 mph 1012.9mb 54f 42f
8:18 15 21 mph 1012.8mb 54f 42f
8:12 13 18 mph 1012.8mb 54f 41f
8:06 14 21 mph 1012.8mb 54f 41f
8:00 14 21 mph 1012.6mb 54f 41f
7:54 13 17 mph 1012.7mb 54f 41f
7:48 11 17 mph 1012.7mb 54f 41f
7:42 13 17 mph 1012.6mb 54f 40f
7:36 10 16 mph 1012.6mb 54f 40f
7:30 10 16 mph 1012.4mb 54f 40f
7:24 10 14 mph 1012.3mb 54f 40f
7:18 9 14 mph 1012.2mb 54f 40f
7:12 9 15 mph 1012.1mb 54f 39f
7:06 11 14 mph 1012mb 54f 39f
7:00 8 11 mph 1012mb 54f 39f
6:54 8 13 mph 1011.9mb 54f 39f
6:48 10 15 mph 1011.8mb 54f 39f
6:42 9 13 mph 1011.6mb 54f 39f
6:36 10 13 mph 1011.6mb 54f 39f
6:30 8 11 mph 1011.6mb 54f 39f
6:24 8 14 mph 1011.6mb 54f 39f
6:18 10 15 mph 1011.6mb 54f 39f
6:06 9 15 mph 1011.5mb 54f 38f
6:00 8 13 mph 1011.5mb 54f 38f
5:54 8 14 mph 1011.4mb 54f 39f
5:48 9 14 mph 1011.4mb 54f 39f
5:42 8 10 mph 1011.4mb 54f 38f
5:36 7 11 mph 1011.3mb 54f 39f
5:30 10 16 mph 1011.3mb 54f 39f
5:24 10 15 mph 1011.2mb 54f 39f
5:18 8 11 mph 1011.2mb 54f 39f
5:12 8 11 mph 1011.2mb 54f 39f
5:06 8 11 mph 1011.1mb 54f 39f
5:00 7 10 mph 1011mb 54f 39f
4:54 9 15 mph 1010.9mb 54f 39f
4:48 14 21 mph 1010.9mb 54f 40f
4:42 13 18 mph 1010.8mb 54f 40f
4:36 15 20 mph 1010.8mb 54f 40f
4:30 15 21 mph 1010.7mb 54f 40f
4:24 17 21 mph 1010.6mb 54f 40f
4:18 16 25 mph 1010.6mb 54f 40f
4:12 16 24 mph 1010.4mb 54f 40f
4:06 18 23 mph 1010.4mb 54f 40f
4:00 15 23 mph 1010.3mb 54f 41f
3:54 16 21 mph 1010.2mb 54f 41f
3:48 15 24 mph 1010.1mb 54f 41f
3:42 16 22 mph 1010.1mb 54f 41f
3:36 16 23 mph 1010mb 54f 41f
3:30 16 25 mph 1010mb 54f 41f
3:24 20 23 mph 1009.9mb 54f 41f
3:18 18 25 mph 1009.9mb 54f 42f
3:12 20 23 mph 1009.7mb 54f 42f
3:06 21 25 mph 1009.6mb 54f 42f
3:00 16 24 mph 1009.6mb 54f 42f
2:54 20 25 mph 1009.4mb 54f 42f
2:48 21 29 mph 1009.4mb 54f 43f
2:42 18 25 mph 1009.4mb 54f 43f
2:36 18 23 mph 1009.4mb 54f 43f
2:30 17 23 mph 1009.4mb 54f 43f
2:24 16 25 mph 1009.4mb 54f 43f
2:18 17 22 mph 1009.3mb 54f 43f
2:12 18 24 mph 1009.3mb 54f 43f
2:06 18 23 mph 1009.2mb 54f 43f
2:00 17 24 mph 1009.2mb 54f 43f
1:54 17 29 mph 1009.1mb 54f 43f
1:48 17 23 mph 1009.1mb 54f 43f
1:42 17 24 mph 1009.1mb 54f 43f
1:36 17 26 mph 1009mb 54f 43f
1:30 17 22 mph 1008.9mb 54f 43f
1:24 18 22 mph 1009mb 54f 43f
1:18 20 24 mph 1008.9mb 54f 43f
1:12 16 21 mph 1008.9mb 54f 43f
1:06 18 24 mph 1008.9mb 54f 44f
1:00 17 24 mph 1008.9mb 54f 43f
12:48 21 24 mph 1008.7mb 54f 43f
12:42 16 22 mph 1008.7mb 55f 44f
12:36 15 21 mph 1008.7mb 55f 44f
12:30 20 22 mph 1008.7mb 55f 43f
12:24 15 22 mph 1008.6mb 55f 43f
12:18 16 21 mph 1008.5mb 55f 44f
12:12 14 20 mph 1008.4mb 55f 44f
12:06 16 22 mph 1008.4mb 55f 44f
12:00 15 21 mph 1008.4mb 55f 44f
So 10/19 11:54 16 20 mph 1008.4mb 55f 44f
11:48 15 20 mph 1008.4mb 55f 44f
11:30 15 20 mph 1008.3mb 55f 44f
11:24 15 20 mph 1008.3mb 54f 44f
11:18 15 18 mph 1008.3mb 54f 44f
11:12 15 20 mph 1008.3mb 55f 44f
11:06 16 20 mph 1008.3mb 55f 44f
11:00 14 18 mph 1008.3mb 55f 44f
10:54 15 18 mph 1008.3mb 55f 44f
10:48 13 16 mph 1008.3mb 55f 44f
10:42 10 15 mph 1008.3mb 55f 43f
10:36 11 17 mph 1008.3mb 55f 43f
10:30 10 14 mph 1008.3mb 55f -
10:24 8 15 mph 1008.3mb 55f -
10:18 9 14 mph 1008.4mb 55f 43f
10:12 9 14 mph 1008.4mb 55f 43f
10:06 8 13 mph 1008.4mb 55f 43f
10:00 10 14 mph 1008.4mb 55f 43f
9:54 9 10 mph 1008.4mb 55f 43f
9:48 10 14 mph 1008.4mb 55f 43f
9:42 9 13 mph 1008.4mb 55f 43f
9:36 8 14 mph 1008.4mb 55f 43f
9:30 11 15 mph 1008.4mb 55f 43f
9:24 11 16 mph 1008.4mb 55f 43f
9:18 13 16 mph 1008.4mb 55f 43f
9:12 13 17 mph 1008.3mb 55f 43f
9:06 13 16 mph 1008.3mb 55f 43f
9:00 13 15 mph 1008.3mb 54f 43f
8:54 11 15 mph 1008.4mb 54f 44f
8:48 13 18 mph 1008.4mb 54f 44f
8:42 16 20 mph 1008.2mb 54f 44f
8:36 16 20 mph 1008.2mb 54f 44f
8:30 17 21 mph 1008.2mb 54f 44f
8:24 18 23 mph 1008.2mb 54f 44f
8:18 20 22 mph 1008.1mb 55f 44f
8:12 18 26 mph 1008mb 55f 44f
8:06 17 22 mph 1008mb 55f 44f
8:00 20 24 mph 1008.1mb 55f 45f
7:54 22 26 mph 1007.9mb 55f 45f
7:48 18 24 mph 1008mb 55f 45f
7:42 21 29 mph 1008mb 55f 45f
7:36 18 22 mph 1008.1mb 55f 45f
7:30 17 22 mph 1008mb 55f 45f
7:24 17 21 mph 1007.9mb 55f 45f
7:18 15 24 mph 1008mb 55f 45f
7:12 18 23 mph 1008mb 55f 45f
7:06 20 26 mph 1008mb 55f 45f
7:00 20 25 mph 1008mb 55f 45f
6:54 18 24 mph 1008mb 55f 45f
6:48 21 26 mph 1007.9mb 55f 45f
6:42 20 26 mph 1007.8mb 55f 45f
6:36 20 24 mph 1007.8mb 55f 45f
6:30 21 25 mph 1007.8mb 55f 45f
6:24 20 23 mph 1007.8mb 55f 45f
6:18 18 25 mph 1007.7mb 55f 46f
6:12 21 28 mph 1007.7mb 55f 46f
6:06 22 30 mph 1007.7mb 55f 46f
6:00 22 30 mph 1007.8mb 55f 46f
5:54 22 28 mph 1007.9mb 55f 46f
5:48 23 28 mph 1007.9mb 55f 46f
5:42 23 29 mph 1008.1mb 55f 46f
5:36 23 30 mph 1008mb 55f 46f
5:30 22 26 mph 1007.6mb 55f 46f
5:24 18 28 mph 1007.3mb 55f 47f
5:18 22 30 mph 1007.3mb 55f 47f
5:12 20 29 mph 1007.3mb 55f 47f
5:06 18 24 mph 1007.2mb 55f 47f
5:00 21 26 mph 1007.2mb 55f 47f
4:54 22 28 mph 1007mb 55f 47f
4:48 16 25 mph 1006.6mb 55f 48f
4:42 22 25 mph 1006.8mb 55f 48f
4:36 23 29 mph 1006.8mb 55f 48f
4:30 21 26 mph 1006.3mb 55f 48f
4:24 20 25 mph 1006.5mb 55f 48f
4:18 20 22 mph 1006.6mb 55f 48f
4:12 16 21 mph 1006.6mb 55f 48f
4:06 16 23 mph 1006.7mb 55f 48f
4:00 16 21 mph 1006.6mb 55f 49f
3:54 14 21 mph 1006.6mb 55f 49f
3:48 18 22 mph 1006.4mb 55f 49f
3:42 18 21 mph 1006.3mb 55f 49f
3:36 15 18 mph 1006mb 55f 49f
3:30 15 22 mph 1006.1mb 55f 49f
3:24 14 18 mph 1006.1mb 55f 49f
3:18 15 22 mph 1006mb 55f 49f
3:12 11 17 mph 1005.9mb 55f 49f
3:06 9 15 mph 1006.2mb 55f 49f
3:00 9 14 mph 1006.2mb 55f 48f
2:54 8 13 mph 1006.2mb 55f 48f
2:48 6 13 mph 1006.4mb 55f 48f
2:42 10 14 mph 1006.4mb 55f 48f
2:36 8 14 mph 1006.4mb 55f 48f
2:30 9 15 mph 1006.3mb 55f 48f
2:24 13 18 mph 1006.3mb 55f 47f
2:18 10 17 mph 1006.2mb 55f 47f
2:12 13 21 mph 1006mb 55f 47f
2:06 17 21 mph 1005.6mb 55f 47f
2:00 13 20 mph 1005.5mb 55f 47f
1:54 16 22 mph 1005.2mb 55f 47f
1:48 14 20 mph 1005.2mb 55f 47f
1:42 11 21 mph 1005.1mb 55f 47f
1:36 16 22 mph 1004.9mb 55f 47f
1:30 16 23 mph 1005mb 55f 47f
1:24 13 16 mph 1004.8mb 55f 47f
1:18 10 21 mph 1005.2mb 55f 47f
1:12 14 22 mph 1005.2mb 55f 47f
1:06 17 22 mph 1005.4mb 55f 46f
1:00 14 16 mph 1005.2mb 55f 47f
12:54 13 20 mph 1005.3mb 55f 47f
12:48 14 18 mph 1005.3mb 55f 46f
12:42 13 17 mph 1005.3mb 55f 46f
12:36 15 21 mph 1005.2mb 55f 46f
12:30 17 21 mph 1005.2mb 55f 46f
12:24 15 21 mph 1005.2mb 55f 46f
12:18 15 21 mph 1005.2mb 55f 46f
12:12 17 21 mph 1005.4mb 55f 46f
12:06 13 16 mph 1005.4mb 55f 46f
12:00 14 17 mph 1005.4mb 55f 46f
11:54 13 17 mph 1005.6mb 55f 46f
11:48 14 20 mph 1005.8mb 55f 46f
11:42 14 18 mph 1005.9mb 55f 46f
11:36 14 18 mph 1006mb 55f 45f
11:30 15 18 mph 1006mb 55f 46f
11:24 14 21 mph 1006mb 55f 46f
11:18 15 20 mph 1006mb 55f 45f
11:12 17 21 mph 1006mb 55f 45f
11:06 14 20 mph 1005.9mb 55f 45f
11:00 15 18 mph 1005.9mb 55f 45f
10:54 16 20 mph 1005.9mb 55f 45f
10:48 18 21 mph 1005.8mb 55f 45f
10:42 16 22 mph 1005.8mb 55f 45f
10:36 18 23 mph 1005.9mb 55f 45f
10:30 21 22 mph 1006mb 55f 45f
10:24 17 21 mph 1005.9mb 55f 45f
10:18 15 21 mph 1006mb 55f 45f
10:12 17 23 mph 1006mb 55f 45f
10:06 20 23 mph 1005.8mb 55f 45f
10:00 21 24 mph 1005.8mb 55f 45f
9:54 17 23 mph 1005.8mb 55f 45f
9:48 18 23 mph 1005.7mb 55f 45f
9:42 20 26 mph 1005.7mb 55f 45f
9:36 20 26 mph 1005.6mb 55f 45f
9:30 21 25 mph 1005.5mb 55f 45f
9:24 21 24 mph 1005.5mb 55f 45f
9:18 18 23 mph 1005.3mb 55f 46f
9:12 21 24 mph 1005.1mb 55f 45f
9:06 22 24 mph 1005mb 55f 45f
9:00 20 24 mph 1005mb 55f 45f
8:54 17 23 mph 1004.9mb 55f 45f
8:48 20 24 mph 1004.9mb 55f 45f
8:42 18 24 mph 1004.8mb 55f 46f
8:36 20 28 mph 1004.8mb 55f 46f
8:30 22 25 mph 1004.8mb 55f 46f
8:24 22 29 mph 1004.6mb 55f 46f
8:18 24 29 mph 1004.6mb 55f 46f
8:12  -  mph 1004.5mb 55f 47f
8:06  -  mph 1004.4mb 55f 47f
8:00  -  mph 1004.2mb 55f 47f
7:54  -  mph 1004.1mb 55f 47f
5:12 13 16 mph 1000.9mb 56f 53f
5:06 11 17 mph 1000.8mb 56f 53f
5:00 13 17 mph 1000.7mb 56f 53f
4:54 10 16 mph 1000.6mb 56f 53f
4:48 14 16 mph 1000.4mb 56f 54f
4:42 9 15 mph 1000.4mb 56f 54f
4:36 9 14 mph 1000.3mb 56f 54f
4:30 8 14 mph 1000.2mb 56f 54f
4:24 11 16 mph 1000mb 56f 54f
4:18 9 13 mph 999.9mb 56f 54f
4:12 9 15 mph 999.8mb 56f 54f
4:06 11 16 mph 999.7mb 56f 55f
4:00 10 16 mph 999.6mb 56f 55f
3:54 10 15 mph 999.5mb 56f 55f
3:48 11 16 mph 999.5mb 56f 55f
3:42 11 17 mph 999.4mb 56f 55f
3:36 11 16 mph 999.3mb 56f 55f
3:30 10 16 mph 999.2mb 56f 55f
3:24 11 15 mph 999.1mb 55f 55f
3:18 9 17 mph 999mb 56f 55f
3:12 9 17 mph 999mb 56f 55f
3:06 9 15 mph 999mb 56f 55f
3:00 11 16 mph 998.9mb 56f 55f
2:54 10 15 mph 998.9mb 56f 55f
2:48 9 16 mph 998.9mb 56f 55f
2:42 11 17 mph 998.8mb 56f 55f
2:36 10 15 mph 998.7mb 56f 55f
2:30 10 16 mph 998.5mb 56f 55f
2:24 10 15 mph 998.5mb 56f 55f
2:18 11 16 mph 998.5mb 56f 55f
2:12 11 16 mph 998.5mb 56f 55f
2:06 10 14 mph 998.5mb 56f 56f
2:00 11 17 mph 998.5mb 56f 56f
1:54 10 15 mph 998.4mb 56f 56f
1:48 11 15 mph 998.4mb 56f 56f
1:42 11 16 mph 998.4mb 56f 56f
1:36 10 14 mph 998.3mb 56f 56f
1:30 10 16 mph 998.2mb 56f 56f
1:24 11 15 mph 998.2mb 56f 56f
1:18 11 16 mph 998.2mb 56f 56f
1:12 11 15 mph 998.1mb 56f 56f
1:06 10 14 mph 998.1mb 56f 56f
1:00 11 15 mph 998mb 56f 56f
12:54 10 15 mph 998mb 56f 56f
12:48 10 16 mph 998.1mb 56f 56f
12:42 10 17 mph 998.1mb 56f 56f
12:36 10 16 mph 998mb 56f 56f
12:30 10 17 mph 997.9mb 56f 57f
12:24 14 18 mph 997.8mb 56f 57f
12:18 11 16 mph 997.9mb 56f 57f
12:12 13 16 mph 997.9mb 56f 57f
12:06 13 15 mph 997.9mb 56f 57f
12:00 11 16 mph 997.9mb 56f 57f
Sa 10/18 11:54 13 16 mph 997.8mb 56f 57f
11:48 10 16 mph 997.8mb 56f 58f
11:42 9 13 mph 997.8mb 56f 58f
11:36 9 13 mph 997.8mb 56f 58f
11:30 9 13 mph 997.8mb 56f 58f
11:24 9 13 mph 997.8mb 56f 58f
11:18 7 10 mph 997.8mb 56f 58f
11:12 7 10 mph 997.8mb 56f 58f
11:06 6 9 mph 997.8mb 56f 58f
11:00 7 10 mph 997.8mb 56f 58f
10:54 7 10 mph 997.9mb 56f 58f
10:48 7 10 mph 998mb 56f 58f
10:42 6 9 mph 998.1mb 56f 58f
10:36 7 9 mph 998.2mb 56f 58f
10:30 6 10 mph 998.2mb 56f 58f
10:24 7 10 mph 998.2mb 56f 58f
10:18 6 11 mph 998.1mb 56f 58f
10:12 7 11 mph 998.1mb 56f 58f
10:06 5 7 mph 998.1mb 56f 58f
10:00  -  3 mph 998.2mb 56f 57f
9:54 3
mph
998.1mb 56f 57f
9:48 1 3 mph 997.9mb 56f 58f
9:42 5 6 mph 997.8mb 56f 58f
9:36 3 8 mph 997.9mb 56f 58f
9:30 7 9 mph 997.9mb 56f 57f
9:24 5 7 mph 997.9mb 56f 58f
9:18 5 6 mph 998.2mb 56f 59f
9:12 2 5 mph 998.4mb 56f 59f
9:06 5 8 mph 998.4mb 56f 59f
9:00 8 10 mph 998.3mb 56f 59f
8:54 6 9 mph 998.2mb 56f 59f
8:48 7 11 mph 998.4mb 56f 59f
8:42 8 15 mph 998.6mb 56f 60f
8:36 10 18 mph 998.7mb 56f 60f
8:30 17 24 mph 998.7mb 56f 61f
8:24 11 20 mph 998.4mb 56f 61f
8:18 9 15 mph 998.2mb 56f 62f
8:12 10 14 mph 998.1mb 56f 62f
8:06 6 11 mph 998.1mb 56f 62f
8:00 5 14 mph 998.1mb 56f 62f
7:54 9 18 mph 998.1mb 56f 62f
7:48 9 14 mph 998.2mb 56f 62f
7:42 8 13 mph 998.3mb 56f 62f
7:36 6 8 mph 998.3mb 56f 62f
7:30 3 10 mph 998.3mb 56f 62f
7:24 3 11 mph 998.3mb 56f 62f
7:18 5 11 mph 998.5mb 56f 62f
7:12 2 9 mph 998.6mb 56f 59f
7:06 6 8 mph 998.7mb 56f 58f
7:00 5 6 mph 998.7mb 56f 59f
6:54  -  5 mph 998.8mb 56f 59f
6:48 2 5 mph 998.7mb 56f 60f
6:42 2 7 mph 998.7mb 55f 59f
6:36  -  6 mph 998.6mb 55f 60f
6:30  -  5 mph 998.7mb 55f 59f
6:24 3 8 mph 998.8mb 55f 59f
6:18 5 10 mph 998.8mb 56f 58f
6:12 8 10 mph 998.8mb 55f 57f
6:06 8 9 mph 998.7mb 55f 58f
6:00 7 9 mph 998.7mb 55f 58f
5:54 8 11 mph 998.7mb 55f 57f
5:48 8 13 mph 998.8mb 55f 57f
5:42 10 13 mph 998.7mb 55f 57f
5:36 8 9 mph 998.9mb 55f 57f
5:30 5 7 mph 998.8mb 55f 59f
5:24 3 7 mph 998.9mb 55f 60f
5:18 2 5 mph 998.9mb 56f 61f
5:12 3 9 mph 999mb 55f 61f
5:06 5 9 mph 999.1mb 55f 61f
5:00 3 8 mph 999.1mb - 60f
4:54 3 6 mph 999.1mb 55f 62f
4:48 3 7 mph 999.1mb 55f 62f
4:42 6 9 mph 999.2mb 55f 62f
4:36 3 9 mph 999.2mb 55f 62f
4:30 6 8 mph 999.2mb 56f 62f
4:24 5 7 mph 999.3mb 56f 62f
4:18 2 7 mph 999.3mb 56f 63f
4:12  -  9 mph 999.3mb 56f 63f
4:06 3 7 mph 999.4mb 55f 63f
4:00 3 8 mph 999.4mb 55f 63f
3:54 3 9 mph 999.4mb 55f 64f
3:48  -  6 mph 999.4mb 55f 64f
3:42 3 9 mph 999.4mb 55f 64f
3:36 6 11 mph 999.5mb 55f 64f
3:30 8 14 mph 999.5mb 55f 64f
3:24 7 11 mph 999.5mb 55f 64f
3:18 7 10 mph 999.5mb 55f 64f
3:12 6 11 mph 999.7mb 55f 64f
3:06 7 11 mph 999.8mb 55f 64f
3:00  -  8 mph 999.8mb 55f 64f
2:54 5 8 mph 999.9mb 55f 64f
2:48 8 13 mph 1000mb 55f 64f
2:42 2 10 mph 1000.1mb 55f 63f
2:36 6 11 mph 1000.2mb 55f 63f
2:30 10 17 mph 1000.2mb 55f 63f
2:24 5 11 mph 1000.2mb 55f 64f
2:18 7 11 mph 1000.3mb 55f 63f
2:12 5 8 mph 1000.5mb 55f 63f
2:06 5 14 mph 1000.4mb 55f 63f
2:00 9 11 mph 1000.3mb 55f 63f
1:54 5 10 mph 1000.4mb 55f 63f
1:48 5 9 mph 1000.4mb 55f 63f
1:42 5 13 mph 1000.4mb 55f 63f
1:36 6 11 mph 1000.4mb 55f 63f
1:30 8 11 mph 1000.4mb 55f 62f
1:24 3 8 mph 1000.5mb 55f 62f
1:18 7 13 mph 1000.5mb 55f 62f
1:12 6 8 mph 1000.7mb 55f 62f
1:06 6 10 mph 1000.7mb 55f 62f
1:00 3 10 mph 1000.8mb 55f 62f
12:54 3 11 mph 1000.9mb 55f 62f
12:48 5 10 mph 1001mb 55f 62f
12:42 6 9 mph 1001.1mb 55f 60f
12:36 9 13 mph 1001.1mb 55f 60f
12:30 1 10 mph 1001.2mb 55f 62f
12:24 7 13 mph 1001.2mb 55f 62f
12:18 6 11 mph 1001.3mb 55f 62f
12:12 2 9 mph 1001.3mb 55f 63f
12:06 7 11 mph 1001.4mb 55f 63f
12:00 2 7 mph 1001.4mb 55f 63f
11:54 2 10 mph 1001.5mb 55f 63f
11:48 5 10 mph 1001.6mb 55f 63f
11:42 6 10 mph 1001.7mb 55f 62f
11:36 8 11 mph 1001.7mb 55f 62f
11:30 8 17 mph 1001.8mb 55f 62f
11:24 8 13 mph 1001.8mb 55f 61f
11:18 6 14 mph 1001.8mb 55f 61f
11:12 8 10 mph 1001.9mb 55f 62f
11:06 1 9 mph 1002mb 55f 62f
11:00 2 10 mph 1002mb 55f 61f
10:54 6 13 mph 1002mb 55f 61f
10:48 7 16 mph 1002.1mb 55f 61f
10:42 8 13 mph 1002.2mb 55f 61f
10:36 6 11 mph 1002.2mb 55f 62f
10:30 6 15 mph 1002.2mb 55f 62f
10:24 6 16 mph 1002.1mb 55f 62f
10:18 7 15 mph 1002.2mb 55f 62f
10:12 7 10 mph 1002.2mb 55f 62f
10:06 10 14 mph 1002.3mb 55f 61f
10:00 13 16 mph 1002.3mb 55f 61f
9:54 8 14 mph 1002.5mb 55f 62f
9:48 8 14 mph 1002.5mb 55f 62f
9:42 6 14 mph 1002.5mb 55f 62f
9:36 8 14 mph 1002.5mb 55f 61f
9:30 6 14 mph 1002.6mb 55f 61f
9:24 7 13 mph 1002.6mb 55f 61f
9:18 8 14 mph 1002.6mb 55f 60f
9:12 2 5 mph 1002.6mb 55f 60f
9:06 2 5 mph 1002.6mb 55f 60f
9:00  -  5 mph 1002.6mb 55f 60f
8:54 2 6 mph 1002.7mb 55f 60f
8:48 3 5 mph 1002.7mb 55f 60f
8:42  -  mph 1002.7mb 55f 60f
8:36  -  2 mph 1002.8mb 55f 60f
8:30 1 5 mph 1002.8mb 55f 60f
8:24  -  5 mph 1002.8mb 56f 60f
8:18 5 6 mph 1002.8mb 55f 60f
8:12  -  5 mph 1002.9mb 55f 60f
8:06  -  5 mph 1003mb 55f 60f
8:00  -  3 mph 1003mb 55f 60f
7:54  -  3 mph 1003mb 55f 60f
7:48  -  3 mph 1003mb 55f 60f
7:42  -  6 mph 1002.9mb 55f 59f
7:36  -  5 mph 1002.9mb 55f 59f
7:30  -  6 mph 1002.8mb 55f 59f
7:24 3 7 mph 1002.8mb 55f 59f
7:18 5 11 mph 1002.7mb 55f 59f
7:12 6 11 mph 1002.6mb 55f 59f
7:06  -  6 mph 1002.6mb 55f 59f
7:00 3 8 mph 1002.6mb 55f 59f
6:54 5 7 mph 1002.6mb 55f 59f
6:48 5 6 mph 1002.6mb 55f 59f
6:42 3 6 mph 1002.7mb 55f 59f
6:36 5 6 mph 1002.8mb 55f 59f
6:30 5 7 mph 1002.8mb 55f 59f
6:24 3 6 mph 1002.8mb 55f 59f
6:18 5 8 mph 1002.9mb 55f 59f
6:12 2 5 mph 1002.8mb 55f 59f
6:06  -  5 mph 1002.8mb 55f 59f
6:00 1 6 mph 1002.8mb 55f 58f
5:54 3 6 mph 1002.9mb 55f 58f
5:48 5 6 mph 1003mb 55f 58f
5:42 3 5 mph 1003mb 55f 58f
5:36 5 11 mph 1003mb 55f 58f
5:30 7 11 mph 1002.9mb 55f 58f
5:24 5 13 mph 1002.8mb 55f 58f
5:18 6 10 mph 1002.8mb 55f 58f
5:12 7 11 mph 1002.8mb 55f 58f
5:06 6 10 mph 1002.9mb 55f 58f
5:00 6 10 mph 1003mb 55f 58f
4:54 5 9 mph 1003.1mb 55f 58f
4:48 1 3 mph 1003.2mb 55f 58f
4:42 1 5 mph 1003.1mb 55f 58f
4:36 3 8 mph 1003mb 55f 58f
4:30 5 11 mph 1002.9mb 55f 58f
4:24 6 13 mph 1002.8mb 55f 58f
4:18 3 7 mph 1002.9mb 55f 58f
4:12 5 7 mph 1002.9mb 55f 58f
4:06 5 6 mph 1002.8mb 55f 58f
4:00 3 6 mph 1002.7mb 55f 58f
3:54 5 7 mph 1002.7mb 55f 59f
3:48 6 11 mph 1002.8mb 55f 59f
3:42 6 14 mph 1002.8mb 55f 59f
3:36 5 8 mph 1002.8mb 55f 59f
3:30 5 8 mph 1002.9mb 55f 59f
3:24 5 10 mph 1003mb 55f 60f
3:18 6 11 mph 1003mb 55f 60f
3:12 6 11 mph 1003mb 55f 60f
3:06 8 13 mph 1003.1mb 55f 60f
3:00 3 9 mph 1003.1mb 55f 60f
2:54 5 9 mph 1003.1mb 55f 60f
2:48 5 8 mph 1003.1mb 55f 60f
2:42 7 9 mph 1003.1mb 55f 61f
2:36 5 10 mph 1003.1mb 55f 61f
2:30 2 7 mph 1003.2mb 55f 61f
2:24 3 9 mph 1003.4mb 55f 62f
2:18 6 11 mph 1003.4mb 55f 62f
2:12 8 13 mph 1003.4mb 55f 62f
2:06 7 13 mph 1003.5mb 55f 62f
2:00 7 11 mph 1003.5mb 55f 62f
1:54 8 11 mph 1003.5mb 55f 62f
1:48 7 11 mph 1003.6mb 55f 62f
1:42 7 13 mph 1003.6mb 55f 62f
1:36 8 13 mph 1003.6mb 55f 63f
1:30 7 11 mph 1003.7mb 55f 62f
1:24 9 14 mph 1003.7mb 55f 62f
1:18 8 10 mph 1003.7mb 55f 62f
1:12 8 15 mph 1003.7mb 55f 62f
1:06 8 14 mph 1003.9mb 55f 62f
1:00 8 13 mph 1004.1mb 55f 62f
12:54 8 11 mph 1004mb 55f 62f
12:48 7 14 mph 1004mb 55f 63f
12:42 8 13 mph 1004mb 55f 63f
12:36 6 9 mph 1004.1mb 55f 63f
12:30 6 8 mph 1004.1mb 55f 63f
12:24 6 8 mph 1004mb 55f 63f
12:18 6 10 mph 1004mb 55f 63f
12:12 6 8 mph 1004mb 55f 62f
12:06 5 6 mph 1003.9mb 55f 62f
12:00 6 8 mph 1004mb 55f 63f
Fr 10/17 11:54 5 7 mph 1004mb 55f 62f
11:48 6 8 mph 1003.9mb 55f 62f
11:42 7 10 mph 1003.8mb 55f 62f
11:36 8 11 mph 1003.8mb 55f 62f
11:30 8 13 mph - 55f -
11:24 6 8 mph - - -
11:12  -  mph - - 62f
11:06  -  mph 1004mb 55f 62f
11:00  -  mph 1004.1mb 55f 62f
10:54 9 14 mph 1004.1mb 55f 62f
10:48 9 13 mph 1004.1mb 55f 62f
10:18  -  mph - - 63f
10:12  -  mph - - 63f
10:06  -  mph - - 64f
10:00 7 14 mph 1004.2mb 55f 63f
9:54 9 13 mph 1004.2mb 55f 64f
9:48 9 13 mph 1004.1mb 55f 64f
9:42 7 14 mph 1004.1mb 55f 63f
9:36 8 10 mph 1004mb 55f 63f
9:30 8 13 mph 1004.1mb 55f 64f
9:24 8 14 mph 1004.1mb 55f 63f
9:18 6 13 mph 1004.1mb 55f 63f
9:12 7 14 mph 1004mb 55f 63f
9:06 7 15 mph 1004mb 55f 63f
9:00 9 14 mph 1003.9mb 55f 63f
8:54 9 13 mph 1003.9mb 55f 64f
8:48 7 13 mph 1003.9mb 55f 64f
8:42 7 10 mph 1003.9mb 55f 64f
8:36 7 16 mph 1003.9mb 55f 64f
8:30 6 13 mph 1003.8mb 55f 64f
8:24 7 15 mph 1003.7mb 55f 64f
8:18 9 14 mph 1003.7mb 55f 64f
8:12 7 10 mph 1003.7mb 55f 64f
8:06 8 14 mph 1003.7mb 55f 64f
8:00 9 13 mph 1003.6mb 55f 64f
7:54 10 15 mph 1003.5mb 55f 64f
7:48 8 14 mph 1003.5mb 55f 64f
7:42 8 13 mph 1003.5mb 55f 64f
7:36 8 18 mph 1003.6mb 55f 64f
7:30 7 17 mph 1003.6mb 55f 63f
7:24 6 16 mph 1003.6mb 55f 63f
7:18 8 14 mph 1003.6mb 55f 63f
7:12 10 18 mph 1003.5mb 55f 63f
7:06 10 14 mph 1003.5mb 55f 63f
7:00 14 21 mph 1003.5mb 55f 63f
6:54 9 16 mph 1003.3mb 55f 63f
6:48 9 17 mph 1003.2mb 55f 63f
6:42 9 17 mph 1003.2mb 55f 63f
6:36 11 16 mph 1003.1mb 55f 62f
6:30 14 21 mph 1003.1mb 55f 62f
6:24 14 20 mph 1003.1mb 55f 62f
6:18 14 21 mph 1003mb 55f 63f
6:12 10 23 mph 1003mb 55f 63f
6:06 16 22 mph 1002.9mb 55f 63f
6:00 14 24 mph 1002.9mb 55f 63f
5:54 14 22 mph 1002.8mb 55f 63f
5:48 11 22 mph 1002.7mb 55f 63f
5:42 11 20 mph 1002.6mb 55f 63f
5:36 11 21 mph 1002.6mb 55f 63f
5:30 9 18 mph 1002.5mb 55f 63f
5:24 13 21 mph 1002.5mb 55f 63f
5:18 13 20 mph 1002.4mb 55f 63f
5:12 14 21 mph 1002.4mb 55f 63f
5:06 10 20 mph 1002.3mb 55f 63f
5:00 11 21 mph 1002.4mb 55f 63f
4:54 9 18 mph 1002.3mb 55f 63f
4:48 13 20 mph 1002.2mb 55f 63f
4:42 14 22 mph 1002.1mb 55f 63f
4:36 13 18 mph 1002.1mb 55f 63f
4:30 10 18 mph 1002.1mb 55f 63f
4:24 8 16 mph 1002.2mb 55f 63f
4:18 11 16 mph 1002mb 55f 63f
4:12 13 18 mph 1002mb 55f 63f
4:06 13 16 mph 1001.8mb 55f 63f
4:00 13 20 mph 1001.8mb 55f 62f
3:54 10 20 mph 1001.7mb 55f 63f
3:48 15 23 mph 1001.6mb 55f 62f
3:42 9 17 mph 1001.7mb 55f 62f
3:36 9 24 mph 1001.8mb 55f 62f
3:30 10 20 mph 1001.8mb 55f 62f
3:24 15 22 mph 1001.7mb 55f 62f
3:18 11 21 mph 1001.7mb 55f 62f
3:12 13 17 mph 1001.6mb 55f 62f
3:06 9 20 mph 1001.5mb 55f 62f
3:00 15 22 mph 1001.4mb 55f 61f
2:54 14 22 mph 1001.3mb 55f 61f
2:48 15 22 mph 1001.2mb 55f 61f
2:42 14 23 mph 1001.3mb 55f 61f
2:36 16 28 mph 1001.2mb 55f 61f
2:30 13 24 mph 1001.1mb 55f 62f
2:24 9 20 mph 1001.1mb 55f 62f
2:18 11 16 mph 1001.2mb 55f 62f
2:12 13 20 mph 1001.1mb 55f 62f
2:06 9 26 mph 1001.1mb 55f 62f
2:00 13 22 mph 1000.9mb 55f 62f
1:54 14 24 mph 1000.9mb 55f 62f
1:48 10 22 mph 1001.1mb 55f 62f
1:42 13 22 mph 1000.9mb 55f 62f
1:36 10 26 mph 1000.9mb 55f 62f
1:30 14 23 mph 1001mb 55f 62f
1:24 13 21 mph 1001mb 55f 62f
1:18 11 18 mph 1001mb 55f 62f
1:12 14 22 mph 1000.9mb 55f 62f
1:06 11 18 mph 1001.1mb 55f 62f
1:00 10 21 mph 1001.1mb 55f 62f
12:54 10 22 mph 1001.2mb 55f 62f
12:48 7 15 mph 1001.2mb 55f 62f
12:42 10 17 mph 1001.2mb 55f 62f
12:36 7 18 mph 1001.4mb 55f 61f
12:30 11 18 mph 1001.5mb 55f 61f
12:24 8 14 mph 1001.5mb 55f 61f
12:18 8 16 mph 1001.5mb 55f 62f
12:12 8 18 mph 1001.6mb 55f 61f
12:06 9 16 mph 1001.7mb 55f 61f
12:00 10 18 mph 1001.9mb 55f 62f
11:54 9 18 mph 1002mb 55f 62f
11:48 6 22 mph 1001.9mb 55f 62f
11:42 7 18 mph 1001.9mb 55f 62f